sensor_id;sensor_type;location;lat;lon;timestamp;pressure;altitude;pressure_sealevel;temperature
68911;BMP180;55953;51.650;-0.522;2023-06-26T00:00:37;100729.20;;;16.60
68911;BMP180;55953;51.650;-0.522;2023-06-26T00:03:25;100729.00;;;16.50
68911;BMP180;55953;51.650;-0.522;2023-06-26T00:05:53;100728.60;;;16.50
68911;BMP180;55953;51.650;-0.522;2023-06-26T00:08:21;100730.20;;;16.50
68911;BMP180;55953;51.650;-0.522;2023-06-26T00:10:49;100733.20;;;16.50
68911;BMP180;55953;51.650;-0.522;2023-06-26T00:13:19;100735.20;;;16.50
68911;BMP180;55953;51.650;-0.522;2023-06-26T00:15:47;100741.40;;;16.50
68911;BMP180;55953;51.650;-0.522;2023-06-26T00:18:15;100735.40;;;16.46
68911;BMP180;55953;51.650;-0.522;2023-06-26T00:20:43;100737.80;;;16.40
68911;BMP180;55953;51.650;-0.522;2023-06-26T00:23:12;100740.00;;;16.40
68911;BMP180;55953;51.650;-0.522;2023-06-26T00:25:41;100745.40;;;16.40
68911;BMP180;55953;51.650;-0.522;2023-06-26T00:28:09;100745.80;;;16.40
68911;BMP180;55953;51.650;-0.522;2023-06-26T00:30:38;100749.40;;;16.40
68911;BMP180;55953;51.650;-0.522;2023-06-26T00:33:06;100748.80;;;16.40
68911;BMP180;55953;51.650;-0.522;2023-06-26T00:35:34;100747.00;;;16.30
68911;BMP180;55953;51.650;-0.522;2023-06-26T00:38:04;100748.00;;;16.30
68911;BMP180;55953;51.650;-0.522;2023-06-26T00:40:31;100750.60;;;16.30
68911;BMP180;55953;51.650;-0.522;2023-06-26T00:42:59;100758.00;;;16.28
68911;BMP180;55953;51.650;-0.522;2023-06-26T00:45:28;100757.40;;;16.20
68911;BMP180;55953;51.650;-0.522;2023-06-26T00:48:10;100758.40;;;16.20
68911;BMP180;55953;51.650;-0.522;2023-06-26T00:50:41;100762.20;;;16.20
68911;BMP180;55953;51.650;-0.522;2023-06-26T00:53:10;100758.20;;;16.18
68911;BMP180;55953;51.650;-0.522;2023-06-26T00:55:39;100760.40;;;16.10
68911;BMP180;55953;51.650;-0.522;2023-06-26T00:58:06;100763.20;;;16.10
68911;BMP180;55953;51.650;-0.522;2023-06-26T01:00:34;100767.40;;;16.10
68911;BMP180;55953;51.650;-0.522;2023-06-26T01:03:03;100764.40;;;16.10
68911;BMP180;55953;51.650;-0.522;2023-06-26T01:05:31;100772.60;;;16.10
68911;BMP180;55953;51.650;-0.522;2023-06-26T01:07:59;100780.00;;;16.00
68911;BMP180;55953;51.650;-0.522;2023-06-26T01:10:28;100782.60;;;16.00
68911;BMP180;55953;51.650;-0.522;2023-06-26T01:12:57;100784.60;;;16.00
68911;BMP180;55953;51.650;-0.522;2023-06-26T01:15:25;100788.60;;;16.00
68911;BMP180;55953;51.650;-0.522;2023-06-26T01:17:53;100790.00;;;15.98
68911;BMP180;55953;51.650;-0.522;2023-06-26T01:20:21;100790.00;;;15.90
68911;BMP180;55953;51.650;-0.522;2023-06-26T01:26:14;100799.80;;;15.90
68911;BMP180;55953;51.650;-0.522;2023-06-26T01:28:43;100800.20;;;15.90
68911;BMP180;55953;51.650;-0.522;2023-06-26T01:31:13;100805.20;;;15.80
68911;BMP180;55953;51.650;-0.522;2023-06-26T01:33:43;100803.80;;;15.80
68911;BMP180;55953;51.650;-0.522;2023-06-26T01:36:12;100800.80;;;15.80
68911;BMP180;55953;51.650;-0.522;2023-06-26T01:38:39;100801.60;;;15.72
68911;BMP180;55953;51.650;-0.522;2023-06-26T01:41:07;100799.40;;;15.70
68911;BMP180;55953;51.650;-0.522;2023-06-26T01:46:45;100803.20;;;15.70
68911;BMP180;55953;51.650;-0.522;2023-06-26T01:49:39;100807.00;;;15.60
68911;BMP180;55953;51.650;-0.522;2023-06-26T01:52:19;100813.80;;;15.60
68911;BMP180;55953;51.650;-0.522;2023-06-26T01:55:12;100816.20;;;15.60
68911;BMP180;55953;51.650;-0.522;2023-06-26T01:57:46;100814.20;;;15.60
68911;BMP180;55953;51.650;-0.522;2023-06-26T02:00:20;100811.00;;;15.50
68911;BMP180;55953;51.650;-0.522;2023-06-26T02:02:49;100816.20;;;15.50
68911;BMP180;55953;51.650;-0.522;2023-06-26T02:05:17;100821.80;;;15.50
68911;BMP180;55953;51.650;-0.522;2023-06-26T02:07:45;100819.00;;;15.40
68911;BMP180;55953;51.650;-0.522;2023-06-26T02:10:13;100819.00;;;15.40
68911;BMP180;55953;51.650;-0.522;2023-06-26T02:12:41;100819.20;;;15.40
68911;BMP180;55953;51.650;-0.522;2023-06-26T02:15:09;100815.00;;;15.40
68911;BMP180;55953;51.650;-0.522;2023-06-26T02:17:36;100812.60;;;15.40
68911;BMP180;55953;51.650;-0.522;2023-06-26T02:20:05;100819.00;;;15.40
68911;BMP180;55953;51.650;-0.522;2023-06-26T02:22:33;100814.60;;;15.40
68911;BMP180;55953;51.650;-0.522;2023-06-26T02:25:01;100816.80;;;15.40
68911;BMP180;55953;51.650;-0.522;2023-06-26T02:27:29;100816.80;;;15.40
68911;BMP180;55953;51.650;-0.522;2023-06-26T02:29:57;100820.80;;;15.40
68911;BMP180;55953;51.650;-0.522;2023-06-26T02:32:25;100823.60;;;15.40
68911;BMP180;55953;51.650;-0.522;2023-06-26T02:34:53;100826.60;;;15.30
68911;BMP180;55953;51.650;-0.522;2023-06-26T02:37:21;100826.40;;;15.30
68911;BMP180;55953;51.650;-0.522;2023-06-26T02:39:49;100833.20;;;15.30
68911;BMP180;55953;51.650;-0.522;2023-06-26T02:42:17;100831.80;;;15.22
68911;BMP180;55953;51.650;-0.522;2023-06-26T02:44:45;100830.40;;;15.20
68911;BMP180;55953;51.650;-0.522;2023-06-26T02:47:13;100827.60;;;15.20
68911;BMP180;55953;51.650;-0.522;2023-06-26T02:49:42;100833.00;;;15.20
68911;BMP180;55953;51.650;-0.522;2023-06-26T02:52:10;100833.60;;;15.16
68911;BMP180;55953;51.650;-0.522;2023-06-26T02:54:38;100840.20;;;15.10
68911;BMP180;55953;51.650;-0.522;2023-06-26T02:57:06;100845.00;;;15.10
68911;BMP180;55953;51.650;-0.522;2023-06-26T02:59:34;100849.40;;;15.10
68911;BMP180;55953;51.650;-0.522;2023-06-26T03:02:02;100847.00;;;15.06
68911;BMP180;55953;51.650;-0.522;2023-06-26T03:04:40;100841.40;;;15.00
68911;BMP180;55953;51.650;-0.522;2023-06-26T03:07:09;100841.00;;;15.00
68911;BMP180;55953;51.650;-0.522;2023-06-26T03:09:38;100844.60;;;14.90
68911;BMP180;55953;51.650;-0.522;2023-06-26T03:12:07;100846.00;;;14.90
68911;BMP180;55953;51.650;-0.522;2023-06-26T03:14:36;100846.60;;;14.90
68911;BMP180;55953;51.650;-0.522;2023-06-26T03:17:04;100851.80;;;14.90
68911;BMP180;55953;51.650;-0.522;2023-06-26T03:19:33;100853.60;;;14.90
68911;BMP180;55953;51.650;-0.522;2023-06-26T03:22:28;100850.20;;;14.80
68911;BMP180;55953;51.650;-0.522;2023-06-26T03:24:55;100851.80;;;14.80
68911;BMP180;55953;51.650;-0.522;2023-06-26T03:27:23;100853.00;;;14.80
68911;BMP180;55953;51.650;-0.522;2023-06-26T03:29:52;100851.60;;;14.80
68911;BMP180;55953;51.650;-0.522;2023-06-26T03:32:21;100854.40;;;14.80
68911;BMP180;55953;51.650;-0.522;2023-06-26T03:34:49;100856.80;;;14.76
68911;BMP180;55953;51.650;-0.522;2023-06-26T03:37:17;100862.40;;;14.70
68911;BMP180;55953;51.650;-0.522;2023-06-26T03:39:45;100864.80;;;14.70
68911;BMP180;55953;51.650;-0.522;2023-06-26T03:42:13;100860.20;;;14.70
68911;BMP180;55953;51.650;-0.522;2023-06-26T03:44:41;100860.60;;;14.70
68911;BMP180;55953;51.650;-0.522;2023-06-26T03:47:09;100856.20;;;14.66
68911;BMP180;55953;51.650;-0.522;2023-06-26T03:49:37;100863.40;;;14.60
68911;BMP180;55953;51.650;-0.522;2023-06-26T03:52:05;100863.00;;;14.60
68911;BMP180;55953;51.650;-0.522;2023-06-26T03:54:33;100866.00;;;14.60
68911;BMP180;55953;51.650;-0.522;2023-06-26T03:57:01;100871.20;;;14.60
68911;BMP180;55953;51.650;-0.522;2023-06-26T03:59:30;100880.60;;;14.60
68911;BMP180;55953;51.650;-0.522;2023-06-26T04:01:58;100880.80;;;14.50
68911;BMP180;55953;51.650;-0.522;2023-06-26T04:04:26;100886.40;;;14.50
68911;BMP180;55953;51.650;-0.522;2023-06-26T04:06:54;100890.00;;;14.56
68911;BMP180;55953;51.650;-0.522;2023-06-26T04:09:22;100892.60;;;14.52
68911;BMP180;55953;51.650;-0.522;2023-06-26T04:11:50;100903.00;;;14.50
68911;BMP180;55953;51.650;-0.522;2023-06-26T04:14:18;100901.80;;;14.50
68911;BMP180;55953;51.650;-0.522;2023-06-26T04:16:46;100903.80;;;14.50
68911;BMP180;55953;51.650;-0.522;2023-06-26T04:19:14;100897.60;;;14.50
68911;BMP180;55953;51.650;-0.522;2023-06-26T04:21:42;100894.00;;;14.50
68911;BMP180;55953;51.650;-0.522;2023-06-26T04:24:10;100888.00;;;14.50
68911;BMP180;55953;51.650;-0.522;2023-06-26T04:26:42;100888.00;;;14.56
68911;BMP180;55953;51.650;-0.522;2023-06-26T04:29:09;100889.20;;;14.58
68911;BMP180;55953;51.650;-0.522;2023-06-26T04:31:38;100893.00;;;14.60
68911;BMP180;55953;51.650;-0.522;2023-06-26T04:34:07;100896.60;;;14.60
68911;BMP180;55953;51.650;-0.522;2023-06-26T04:36:34;100903.00;;;14.60
68911;BMP180;55953;51.650;-0.522;2023-06-26T04:39:06;100913.60;;;14.60
68911;BMP180;55953;51.650;-0.522;2023-06-26T04:41:34;100920.20;;;14.62
68911;BMP180;55953;51.650;-0.522;2023-06-26T04:44:02;100924.40;;;14.70
68911;BMP180;55953;51.650;-0.522;2023-06-26T04:46:30;100921.00;;;14.70
68911;BMP180;55953;51.650;-0.522;2023-06-26T04:48:58;100921.20;;;14.72
68911;BMP180;55953;51.650;-0.522;2023-06-26T04:51:26;100919.40;;;14.80
68911;BMP180;55953;51.650;-0.522;2023-06-26T04:53:54;100920.20;;;14.80
68911;BMP180;55953;51.650;-0.522;2023-06-26T04:56:22;100918.60;;;14.80
68911;BMP180;55953;51.650;-0.522;2023-06-26T04:58:50;100920.40;;;14.80
68911;BMP180;55953;51.650;-0.522;2023-06-26T05:01:18;100927.80;;;14.88
68911;BMP180;55953;51.650;-0.522;2023-06-26T05:03:46;100927.80;;;14.90
68911;BMP180;55953;51.650;-0.522;2023-06-26T05:06:15;100924.80;;;14.90
68911;BMP180;55953;51.650;-0.522;2023-06-26T05:08:43;100927.20;;;14.90
68911;BMP180;55953;51.650;-0.522;2023-06-26T05:11:11;100923.60;;;14.90
68911;BMP180;55953;51.650;-0.522;2023-06-26T05:13:39;100932.20;;;14.98
68911;BMP180;55953;51.650;-0.522;2023-06-26T05:16:08;100932.40;;;15.00
68911;BMP180;55953;51.650;-0.522;2023-06-26T05:18:37;100932.20;;;15.10
68911;BMP180;55953;51.650;-0.522;2023-06-26T05:21:05;100937.00;;;15.10
68911;BMP180;55953;51.650;-0.522;2023-06-26T05:23:34;100942.60;;;15.10
68911;BMP180;55953;51.650;-0.522;2023-06-26T05:26:03;100938.20;;;15.12
68911;BMP180;55953;51.650;-0.522;2023-06-26T05:28:32;100936.60;;;15.20
68911;BMP180;55953;51.650;-0.522;2023-06-26T05:31:00;100943.40;;;15.20
68911;BMP180;55953;51.650;-0.522;2023-06-26T05:33:28;100944.60;;;15.30
68911;BMP180;55953;51.650;-0.522;2023-06-26T05:35:57;100946.60;;;15.30
68911;BMP180;55953;51.650;-0.522;2023-06-26T05:38:27;100956.40;;;15.40
68911;BMP180;55953;51.650;-0.522;2023-06-26T05:40:56;100957.40;;;15.40
68911;BMP180;55953;51.650;-0.522;2023-06-26T05:43:24;100968.40;;;15.50
68911;BMP180;55953;51.650;-0.522;2023-06-26T05:45:57;100964.00;;;15.50
68911;BMP180;55953;51.650;-0.522;2023-06-26T05:48:25;100963.00;;;15.50
68911;BMP180;55953;51.650;-0.522;2023-06-26T05:50:54;100964.60;;;15.60
68911;BMP180;55953;51.650;-0.522;2023-06-26T05:53:22;100963.60;;;15.70
68911;BMP180;55953;51.650;-0.522;2023-06-26T05:55:50;100967.60;;;15.70
68911;BMP180;55953;51.650;-0.522;2023-06-26T05:58:20;100964.20;;;15.80
68911;BMP180;55953;51.650;-0.522;2023-06-26T06:00:49;100960.00;;;15.80
68911;BMP180;55953;51.650;-0.522;2023-06-26T06:03:17;100960.40;;;15.90
68911;BMP180;55953;51.650;-0.522;2023-06-26T06:05:47;100964.00;;;15.90
68911;BMP180;55953;51.650;-0.522;2023-06-26T06:08:15;100966.20;;;15.90
68911;BMP180;55953;51.650;-0.522;2023-06-26T06:10:43;100960.40;;;16.00
68911;BMP180;55953;51.650;-0.522;2023-06-26T06:13:10;100955.80;;;16.00
68911;BMP180;55953;51.650;-0.522;2023-06-26T06:15:38;100962.20;;;16.10
68911;BMP180;55953;51.650;-0.522;2023-06-26T06:18:06;100969.00;;;16.20
68911;BMP180;55953;51.650;-0.522;2023-06-26T06:20:35;100967.20;;;16.30
68911;BMP180;55953;51.650;-0.522;2023-06-26T06:23:03;100963.20;;;16.40
68911;BMP180;55953;51.650;-0.522;2023-06-26T06:25:31;100970.80;;;16.50
68911;BMP180;55953;51.650;-0.522;2023-06-26T06:27:59;100975.00;;;16.56
68911;BMP180;55953;51.650;-0.522;2023-06-26T06:30:27;100974.80;;;16.60
68911;BMP180;55953;51.650;-0.522;2023-06-26T06:33:12;100979.60;;;16.70
68911;BMP180;55953;51.650;-0.522;2023-06-26T06:35:39;100969.40;;;16.80
68911;BMP180;55953;51.650;-0.522;2023-06-26T06:38:07;100972.80;;;16.90
68911;BMP180;55953;51.650;-0.522;2023-06-26T06:40:35;100982.80;;;17.00
68911;BMP180;55953;51.650;-0.522;2023-06-26T06:43:04;100983.00;;;17.00
68911;BMP180;55953;51.650;-0.522;2023-06-26T06:45:31;100987.60;;;17.00
68911;BMP180;55953;51.650;-0.522;2023-06-26T06:47:59;100994.40;;;17.10
68911;BMP180;55953;51.650;-0.522;2023-06-26T06:50:27;100998.80;;;17.10
68911;BMP180;55953;51.650;-0.522;2023-06-26T06:52:55;100996.00;;;17.20
68911;BMP180;55953;51.650;-0.522;2023-06-26T06:55:23;101006.60;;;17.30
68911;BMP180;55953;51.650;-0.522;2023-06-26T06:57:51;101001.20;;;17.40
68911;BMP180;55953;51.650;-0.522;2023-06-26T07:00:19;100997.60;;;17.50
68911;BMP180;55953;51.650;-0.522;2023-06-26T07:02:47;101004.40;;;17.50
68911;BMP180;55953;51.650;-0.522;2023-06-26T07:05:16;101012.00;;;17.40
68911;BMP180;55953;51.650;-0.522;2023-06-26T07:07:44;101015.40;;;17.50
68911;BMP180;55953;51.650;-0.522;2023-06-26T07:10:13;101013.60;;;17.50
68911;BMP180;55953;51.650;-0.522;2023-06-26T07:12:41;101021.00;;;17.40
68911;BMP180;55953;51.650;-0.522;2023-06-26T07:15:09;101014.20;;;17.40
68911;BMP180;55953;51.650;-0.522;2023-06-26T07:17:38;101018.60;;;17.50
68911;BMP180;55953;51.650;-0.522;2023-06-26T07:20:07;101021.80;;;17.60
68911;BMP180;55953;51.650;-0.522;2023-06-26T07:22:37;101023.00;;;17.60
68911;BMP180;55953;51.650;-0.522;2023-06-26T07:25:05;101032.60;;;17.60
68911;BMP180;55953;51.650;-0.522;2023-06-26T07:27:38;101024.40;;;17.70
68911;BMP180;55953;51.650;-0.522;2023-06-26T07:30:08;101032.40;;;17.70
68911;BMP180;55953;51.650;-0.522;2023-06-26T07:32:39;101028.80;;;17.70
68911;BMP180;55953;51.650;-0.522;2023-06-26T07:35:10;101044.20;;;17.80
68911;BMP180;55953;51.650;-0.522;2023-06-26T07:37:38;101041.60;;;17.90
68911;BMP180;55953;51.650;-0.522;2023-06-26T07:40:07;101035.60;;;18.00
68911;BMP180;55953;51.650;-0.522;2023-06-26T07:42:35;101042.40;;;18.20
68911;BMP180;55953;51.650;-0.522;2023-06-26T07:45:03;101037.80;;;18.30
68911;BMP180;55953;51.650;-0.522;2023-06-26T07:47:39;101027.20;;;18.32
68911;BMP180;55953;51.650;-0.522;2023-06-26T07:50:07;101048.20;;;18.42
68911;BMP180;55953;51.650;-0.522;2023-06-26T07:52:36;101049.80;;;18.50
68911;BMP180;55953;51.650;-0.522;2023-06-26T07:55:04;101053.00;;;18.56
68911;BMP180;55953;51.650;-0.522;2023-06-26T07:57:32;101053.00;;;18.60
68911;BMP180;55953;51.650;-0.522;2023-06-26T08:00:00;101043.00;;;18.70
68911;BMP180;55953;51.650;-0.522;2023-06-26T08:02:28;101043.80;;;18.68
68911;BMP180;55953;51.650;-0.522;2023-06-26T08:04:57;101051.80;;;18.70
68911;BMP180;55953;51.650;-0.522;2023-06-26T08:07:25;101052.40;;;18.80
68911;BMP180;55953;51.650;-0.522;2023-06-26T08:09:53;101046.40;;;18.82
68911;BMP180;55953;51.650;-0.522;2023-06-26T08:12:20;101048.40;;;19.04
68911;BMP180;55953;51.650;-0.522;2023-06-26T08:14:48;101057.00;;;19.30
68911;BMP180;55953;51.650;-0.522;2023-06-26T08:17:16;101064.20;;;19.42
68911;BMP180;55953;51.650;-0.522;2023-06-26T08:19:44;101059.80;;;19.50
68911;BMP180;55953;51.650;-0.522;2023-06-26T08:22:12;101060.60;;;19.60
68911;BMP180;55953;51.650;-0.522;2023-06-26T08:24:40;101051.60;;;19.60
68911;BMP180;55953;51.650;-0.522;2023-06-26T08:27:07;101064.00;;;19.80
68911;BMP180;55953;51.650;-0.522;2023-06-26T08:29:35;101057.60;;;19.84
68911;BMP180;55953;51.650;-0.522;2023-06-26T08:32:03;101061.00;;;19.90
68911;BMP180;55953;51.650;-0.522;2023-06-26T08:34:31;101068.60;;;20.00
68911;BMP180;55953;51.650;-0.522;2023-06-26T08:36:59;101064.80;;;20.00
68911;BMP180;55953;51.650;-0.522;2023-06-26T08:39:27;101068.80;;;20.10
68911;BMP180;55953;51.650;-0.522;2023-06-26T08:41:55;101071.40;;;20.10
68911;BMP180;55953;51.650;-0.522;2023-06-26T08:44:23;101068.60;;;20.10
68911;BMP180;55953;51.650;-0.522;2023-06-26T08:46:52;101070.60;;;20.20
68911;BMP180;55953;51.650;-0.522;2023-06-26T08:49:25;101068.60;;;20.24
68911;BMP180;55953;51.650;-0.522;2023-06-26T08:52:24;101067.60;;;20.26
68911;BMP180;55953;51.650;-0.522;2023-06-26T08:55:02;101072.80;;;20.26
68911;BMP180;55953;51.650;-0.522;2023-06-26T08:57:30;101069.80;;;20.30
68911;BMP180;55953;51.650;-0.522;2023-06-26T09:00:00;101074.40;;;20.40
68911;BMP180;55953;51.650;-0.522;2023-06-26T09:02:28;101069.60;;;20.50
68911;BMP180;55953;51.650;-0.522;2023-06-26T09:04:57;101076.00;;;20.52
68911;BMP180;55953;51.650;-0.522;2023-06-26T09:07:25;101081.40;;;20.40
68911;BMP180;55953;51.650;-0.522;2023-06-26T09:09:53;101081.40;;;20.30
68911;BMP180;55953;51.650;-0.522;2023-06-26T09:12:21;101090.20;;;20.30
68911;BMP180;55953;51.650;-0.522;2023-06-26T09:14:49;101093.60;;;20.50
68911;BMP180;55953;51.650;-0.522;2023-06-26T09:17:17;101086.20;;;20.60
68911;BMP180;55953;51.650;-0.522;2023-06-26T09:19:46;101101.00;;;20.52
68911;BMP180;55953;51.650;-0.522;2023-06-26T09:22:14;101098.80;;;20.62
68911;BMP180;55953;51.650;-0.522;2023-06-26T09:24:43;101096.60;;;20.92
68911;BMP180;55953;51.650;-0.522;2023-06-26T09:27:12;101082.80;;;21.26
68911;BMP180;55953;51.650;-0.522;2023-06-26T09:29:40;101094.60;;;21.40
68911;BMP180;55953;51.650;-0.522;2023-06-26T09:32:08;101096.40;;;21.20
68911;BMP180;55953;51.650;-0.522;2023-06-26T09:34:42;101100.40;;;21.20
68911;BMP180;55953;51.650;-0.522;2023-06-26T09:37:12;101097.00;;;21.30
68911;BMP180;55953;51.650;-0.522;2023-06-26T09:39:41;101101.20;;;21.30
68911;BMP180;55953;51.650;-0.522;2023-06-26T09:42:09;101091.00;;;21.30
68911;BMP180;55953;51.650;-0.522;2023-06-26T09:44:44;101094.40;;;21.36
68911;BMP180;55953;51.650;-0.522;2023-06-26T09:47:16;101093.80;;;21.36
68911;BMP180;55953;51.650;-0.522;2023-06-26T09:49:45;101093.80;;;21.60
68911;BMP180;55953;51.650;-0.522;2023-06-26T09:52:18;101104.00;;;21.60
68911;BMP180;55953;51.650;-0.522;2023-06-26T09:54:47;101112.80;;;21.60
68911;BMP180;55953;51.650;-0.522;2023-06-26T09:57:18;101110.80;;;21.74
68911;BMP180;55953;51.650;-0.522;2023-06-26T09:59:46;101105.60;;;21.80
68911;BMP180;55953;51.650;-0.522;2023-06-26T10:02:15;101105.20;;;21.80
68911;BMP180;55953;51.650;-0.522;2023-06-26T10:04:43;101108.20;;;21.80
68911;BMP180;55953;51.650;-0.522;2023-06-26T10:07:13;101113.40;;;21.70
68911;BMP180;55953;51.650;-0.522;2023-06-26T10:09:42;101108.00;;;21.64
68911;BMP180;55953;51.650;-0.522;2023-06-26T10:12:28;101115.00;;;21.60
68911;BMP180;55953;51.650;-0.522;2023-06-26T10:14:58;101113.40;;;21.70
68911;BMP180;55953;51.650;-0.522;2023-06-26T10:17:34;101114.80;;;22.00
68911;BMP180;55953;51.650;-0.522;2023-06-26T10:20:04;101116.60;;;22.20
68911;BMP180;55953;51.650;-0.522;2023-06-26T10:22:41;101114.20;;;22.40
68911;BMP180;55953;51.650;-0.522;2023-06-26T10:25:15;101118.40;;;22.70
68911;BMP180;55953;51.650;-0.522;2023-06-26T10:27:52;101111.40;;;22.76
68911;BMP180;55953;51.650;-0.522;2023-06-26T10:30:26;101116.20;;;22.60
68911;BMP180;55953;51.650;-0.522;2023-06-26T10:32:56;101128.40;;;22.50
68911;BMP180;55953;51.650;-0.522;2023-06-26T10:35:25;101127.00;;;22.50
68911;BMP180;55953;51.650;-0.522;2023-06-26T10:38:02;101137.80;;;22.50
68911;BMP180;55953;51.650;-0.522;2023-06-26T10:40:46;101132.20;;;22.40
68911;BMP180;55953;51.650;-0.522;2023-06-26T10:43:16;101131.60;;;22.60
68911;BMP180;55953;51.650;-0.522;2023-06-26T10:45:48;101130.40;;;22.60
68911;BMP180;55953;51.650;-0.522;2023-06-26T10:48:22;101133.60;;;22.46
68911;BMP180;55953;51.650;-0.522;2023-06-26T10:50:50;101137.20;;;22.30
68911;BMP180;55953;51.650;-0.522;2023-06-26T10:56:01;101134.40;;;22.20
68911;BMP180;55953;51.650;-0.522;2023-06-26T10:58:41;101138.80;;;22.30
68911;BMP180;55953;51.650;-0.522;2023-06-26T11:03:44;101137.40;;;22.50
68911;BMP180;55953;51.650;-0.522;2023-06-26T11:06:18;101133.60;;;22.50
68911;BMP180;55953;51.650;-0.522;2023-06-26T11:09:00;101126.40;;;22.62
68911;BMP180;55953;51.650;-0.522;2023-06-26T11:14:23;101131.40;;;22.90
68911;BMP180;55953;51.650;-0.522;2023-06-26T11:16:51;101137.40;;;23.00
68911;BMP180;55953;51.650;-0.522;2023-06-26T11:19:20;101128.60;;;23.00
68911;BMP180;55953;51.650;-0.522;2023-06-26T11:21:48;101137.00;;;23.02
68911;BMP180;55953;51.650;-0.522;2023-06-26T11:24:20;101141.40;;;23.26
68911;BMP180;55953;51.650;-0.522;2023-06-26T11:26:48;101140.00;;;23.36
68911;BMP180;55953;51.650;-0.522;2023-06-26T11:29:16;101136.80;;;23.40
68911;BMP180;55953;51.650;-0.522;2023-06-26T11:31:44;101140.40;;;23.54
68911;BMP180;55953;51.650;-0.522;2023-06-26T11:34:13;101144.80;;;23.70
68911;BMP180;55953;51.650;-0.522;2023-06-26T11:36:42;101146.40;;;23.50
68911;BMP180;55953;51.650;-0.522;2023-06-26T11:39:13;101146.40;;;23.70
68911;BMP180;55953;51.650;-0.522;2023-06-26T11:41:41;101154.40;;;23.70
68911;BMP180;55953;51.650;-0.522;2023-06-26T11:44:10;101153.40;;;23.70
68911;BMP180;55953;51.650;-0.522;2023-06-26T11:46:38;101151.20;;;23.40
68911;BMP180;55953;51.650;-0.522;2023-06-26T11:49:07;101167.60;;;23.24
68911;BMP180;55953;51.650;-0.522;2023-06-26T11:51:35;101168.20;;;23.20
68911;BMP180;55953;51.650;-0.522;2023-06-26T11:54:04;101163.80;;;23.20
68911;BMP180;55953;51.650;-0.522;2023-06-26T11:56:33;101174.20;;;23.48
68911;BMP180;55953;51.650;-0.522;2023-06-26T11:59:07;101179.60;;;23.46
68911;BMP180;55953;51.650;-0.522;2023-06-26T12:01:40;101182.40;;;23.50
68911;BMP180;55953;51.650;-0.522;2023-06-26T12:04:11;101178.20;;;23.48
68911;BMP180;55953;51.650;-0.522;2023-06-26T12:06:46;101170.20;;;23.60
68911;BMP180;55953;51.650;-0.522;2023-06-26T12:09:18;101172.60;;;23.70
68911;BMP180;55953;51.650;-0.522;2023-06-26T12:11:49;101180.60;;;23.70
68911;BMP180;55953;51.650;-0.522;2023-06-26T12:14:24;101172.40;;;23.72
68911;BMP180;55953;51.650;-0.522;2023-06-26T12:16:53;101173.60;;;23.80
68911;BMP180;55953;51.650;-0.522;2023-06-26T12:19:25;101179.20;;;24.00
68911;BMP180;55953;51.650;-0.522;2023-06-26T12:21:56;101179.20;;;24.00
68911;BMP180;55953;51.650;-0.522;2023-06-26T12:24:24;101171.20;;;24.02
68911;BMP180;55953;51.650;-0.522;2023-06-26T12:26:54;101178.40;;;24.14
68911;BMP180;55953;51.650;-0.522;2023-06-26T12:29:34;101174.80;;;24.20
68911;BMP180;55953;51.650;-0.522;2023-06-26T12:32:02;101179.40;;;23.80
68911;BMP180;55953;51.650;-0.522;2023-06-26T12:34:36;101172.60;;;23.70
68911;BMP180;55953;51.650;-0.522;2023-06-26T12:37:10;101187.40;;;23.50
68911;BMP180;55953;51.650;-0.522;2023-06-26T12:39:57;101184.60;;;23.30
68911;BMP180;55953;51.650;-0.522;2023-06-26T12:42:28;101174.80;;;23.10
68911;BMP180;55953;51.650;-0.522;2023-06-26T12:44:56;101174.20;;;23.30
68911;BMP180;55953;51.650;-0.522;2023-06-26T12:47:28;101169.20;;;23.42
68911;BMP180;55953;51.650;-0.522;2023-06-26T12:49:58;101173.80;;;23.52
68911;BMP180;55953;51.650;-0.522;2023-06-26T12:52:26;101166.60;;;23.40
68911;BMP180;55953;51.650;-0.522;2023-06-26T12:54:55;101165.00;;;23.40
68911;BMP180;55953;51.650;-0.522;2023-06-26T12:57:24;101164.20;;;23.30
68911;BMP180;55953;51.650;-0.522;2023-06-26T12:59:53;101161.40;;;23.24
68911;BMP180;55953;51.650;-0.522;2023-06-26T13:02:21;101179.40;;;23.20
68911;BMP180;55953;51.650;-0.522;2023-06-26T13:04:49;101166.00;;;23.02
68911;BMP180;55953;51.650;-0.522;2023-06-26T13:07:17;101170.00;;;22.80
68911;BMP180;55953;51.650;-0.522;2023-06-26T13:09:46;101171.20;;;22.80
68911;BMP180;55953;51.650;-0.522;2023-06-26T13:12:16;101175.40;;;22.90
68911;BMP180;55953;51.650;-0.522;2023-06-26T13:14:43;101173.60;;;23.00
68911;BMP180;55953;51.650;-0.522;2023-06-26T13:17:12;101174.00;;;22.96
68911;BMP180;55953;51.650;-0.522;2023-06-26T13:19:40;101175.60;;;23.10
68911;BMP180;55953;51.650;-0.522;2023-06-26T13:22:08;101173.40;;;23.10
68911;BMP180;55953;51.650;-0.522;2023-06-26T13:24:36;101173.40;;;23.10
68911;BMP180;55953;51.650;-0.522;2023-06-26T13:27:04;101169.80;;;23.10
68911;BMP180;55953;51.650;-0.522;2023-06-26T13:29:32;101166.00;;;23.28
68911;BMP180;55953;51.650;-0.522;2023-06-26T13:32:00;101169.40;;;23.40
68911;BMP180;55953;51.650;-0.522;2023-06-26T13:34:28;101181.00;;;23.30
68911;BMP180;55953;51.650;-0.522;2023-06-26T13:36:56;101183.40;;;23.10
68911;BMP180;55953;51.650;-0.522;2023-06-26T13:39:25;101173.20;;;23.00
68911;BMP180;55953;51.650;-0.522;2023-06-26T13:41:52;101181.80;;;22.82
68911;BMP180;55953;51.650;-0.522;2023-06-26T13:44:20;101191.00;;;22.66
68911;BMP180;55953;51.650;-0.522;2023-06-26T13:47:02;101183.80;;;22.50
68911;BMP180;55953;51.650;-0.522;2023-06-26T13:49:30;101189.80;;;22.50
68911;BMP180;55953;51.650;-0.522;2023-06-26T13:51:58;101196.60;;;22.72
68911;BMP180;55953;51.650;-0.522;2023-06-26T13:54:26;101189.40;;;22.94
68911;BMP180;55953;51.650;-0.522;2023-06-26T13:56:54;101183.80;;;23.28
68911;BMP180;55953;51.650;-0.522;2023-06-26T13:59:25;101179.20;;;23.30
68911;BMP180;55953;51.650;-0.522;2023-06-26T14:01:54;101182.40;;;23.30
68911;BMP180;55953;51.650;-0.522;2023-06-26T14:04:22;101187.80;;;23.20
68911;BMP180;55953;51.650;-0.522;2023-06-26T14:06:50;101178.20;;;23.12
68911;BMP180;55953;51.650;-0.522;2023-06-26T14:09:19;101181.80;;;23.00
68911;BMP180;55953;51.650;-0.522;2023-06-26T14:11:46;101185.00;;;22.90